createdAt,value
2019-03-08T00:02:24.601Z,8.30
2019-03-08T00:04:56.085Z,8.30
2019-03-08T00:07:27.259Z,8.30
2019-03-08T00:09:58.827Z,8.30
2019-03-08T00:12:30.055Z,8.30
2019-03-08T00:15:01.318Z,8.30
2019-03-08T00:17:32.596Z,8.30
2019-03-08T00:20:05.343Z,8.30
2019-03-08T00:22:36.573Z,8.30
2019-03-08T00:25:08.291Z,8.30
2019-03-08T00:27:39.625Z,8.30
2019-03-08T00:30:11.751Z,8.30
2019-03-08T00:32:43.334Z,8.30
2019-03-08T00:35:14.978Z,8.30
2019-03-08T00:37:46.133Z,8.30
2019-03-08T00:40:17.412Z,8.40
2019-03-08T00:42:48.582Z,8.40
2019-03-08T00:45:20.676Z,8.40
2019-03-08T00:47:52.192Z,8.50
2019-03-08T00:50:23.671Z,8.50
2019-03-08T00:52:55.026Z,8.40
2019-03-08T00:55:26.486Z,8.50
2019-03-08T00:57:57.914Z,8.50
2019-03-08T01:00:30.966Z,8.50
2019-03-08T01:03:02.199Z,8.50
2019-03-08T01:05:33.356Z,8.50
2019-03-08T01:08:04.678Z,8.50
2019-03-08T01:10:35.921Z,8.40
2019-03-08T01:13:07.371Z,8.40
2019-03-08T01:15:38.708Z,8.40
2019-03-08T01:18:10.300Z,8.40
2019-03-08T01:20:41.618Z,8.40
2019-03-08T01:23:13.129Z,8.40
2019-03-08T01:25:44.461Z,8.40
2019-03-08T01:28:16.463Z,8.40
2019-03-08T01:30:47.871Z,8.40
2019-03-08T01:33:20.784Z,8.40
2019-03-08T01:35:52.406Z,8.40
2019-03-08T01:38:24.011Z,8.40
2019-03-08T01:40:55.301Z,8.30
2019-03-08T01:43:26.558Z,8.20
2019-03-08T01:45:57.964Z,8.30
2019-03-08T01:48:29.630Z,8.30
2019-03-08T01:51:00.983Z,8.20
2019-03-08T01:53:33.101Z,8.10
2019-03-08T01:56:04.474Z,8.20
2019-03-08T01:58:35.766Z,8.10
2019-03-08T02:01:07.424Z,8.10
2019-03-08T02:03:38.733Z,8.10
2019-03-08T02:06:10.308Z,8.10
2019-03-08T02:08:42.275Z,8.10
2019-03-08T02:11:13.819Z,8.10
2019-03-08T02:13:45.158Z,8.10
2019-03-08T02:16:17.027Z,8.00
2019-03-08T02:18:48.357Z,8.00
2019-03-08T02:21:19.910Z,8.00
2019-03-08T02:23:51.378Z,8.10
2019-03-08T02:26:22.669Z,8.00
2019-03-08T02:28:54.313Z,8.00
2019-03-08T02:31:26.462Z,8.00
2019-03-08T02:33:58.134Z,8.00
2019-03-08T02:36:29.288Z,8.00
2019-03-08T02:39:00.451Z,8.00
2019-03-08T02:41:31.718Z,8.10
2019-03-08T02:44:03.051Z,8.00
2019-03-08T02:46:34.364Z,8.10
2019-03-08T02:49:06.412Z,8.10
2019-03-08T02:51:38.495Z,8.10
2019-03-08T02:54:10.079Z,8.10
2019-03-08T02:56:41.340Z,8.10
2019-03-08T02:59:12.624Z,8.20
2019-03-08T03:01:44.188Z,8.20
2019-03-08T03:04:15.438Z,8.10
2019-03-08T03:06:46.713Z,8.10
2019-03-08T03:09:18.591Z,8.10
2019-03-08T03:11:49.858Z,8.10
2019-03-08T03:14:21.177Z,8.20
2019-03-08T03:16:52.455Z,8.10
2019-03-08T03:19:23.649Z,8.10
2019-03-08T03:21:54.781Z,8.10
2019-03-08T03:24:25.982Z,8.20
2019-03-08T03:26:57.164Z,8.20
2019-03-08T03:29:28.565Z,8.10
2019-03-08T03:31:59.964Z,8.10
2019-03-08T03:34:31.400Z,8.10
2019-03-08T03:37:02.652Z,8.10
2019-03-08T03:39:33.877Z,8.10
2019-03-08T03:42:05.190Z,8.10
2019-03-08T03:44:36.411Z,8.00
2019-03-08T03:47:08.162Z,8.00
2019-03-08T03:49:39.333Z,7.90
2019-03-08T03:52:11.012Z,7.90
2019-03-08T03:54:42.345Z,8.00
2019-03-08T03:57:13.695Z,7.90
2019-03-08T03:59:44.843Z,7.90
2019-03-08T04:02:17.393Z,7.90
2019-03-08T04:04:48.653Z,7.90
2019-03-08T04:07:19.996Z,8.00
2019-03-08T04:09:51.514Z,7.90
2019-03-08T04:12:22.999Z,7.80
2019-03-08T04:14:54.248Z,7.90
2019-03-08T04:17:25.910Z,7.90
2019-03-08T04:19:57.097Z,8.00
2019-03-08T04:22:28.299Z,7.90
2019-03-08T04:24:59.925Z,7.90
2019-03-08T04:27:31.106Z,7.80
2019-03-08T04:30:02.282Z,7.80
2019-03-08T04:32:33.458Z,7.80
2019-03-08T04:35:04.893Z,7.80
2019-03-08T04:37:36.149Z,7.70
2019-03-08T04:40:08.413Z,7.80
2019-03-08T04:42:40.637Z,7.70
2019-03-08T04:45:12.811Z,7.70
2019-03-08T04:47:44.418Z,7.60
2019-03-08T04:50:15.798Z,7.60
2019-03-08T04:52:46.887Z,7.60
2019-03-08T04:55:18.447Z,7.60
2019-03-08T04:57:50.418Z,7.60
2019-03-08T05:00:21.825Z,7.70
2019-03-08T05:02:53.375Z,7.70
2019-03-08T05:05:24.965Z,7.60
2019-03-08T05:07:56.464Z,7.60
2019-03-08T05:10:28.091Z,7.60
2019-03-08T05:12:59.290Z,7.80
2019-03-08T05:15:30.458Z,7.70
2019-03-08T05:18:02.086Z,7.70
2019-03-08T05:20:33.409Z,7.70
2019-03-08T05:23:04.736Z,7.70
2019-03-08T05:25:35.966Z,7.70
2019-03-08T05:28:07.426Z,7.60
2019-03-08T05:30:39.037Z,7.50
2019-03-08T05:33:10.362Z,7.50
2019-03-08T05:35:41.568Z,7.50
2019-03-08T05:38:13.081Z,7.60
2019-03-08T05:40:44.184Z,7.60
2019-03-08T05:43:15.620Z,7.50
2019-03-08T05:45:46.802Z,7.50
2019-03-08T05:48:18.010Z,7.50
2019-03-08T05:50:49.989Z,7.60
2019-03-08T05:53:21.355Z,7.50
2019-03-08T05:55:52.535Z,7.40
2019-03-08T05:58:23.919Z,7.20
2019-03-08T06:00:55.510Z,6.90
2019-03-08T06:03:26.713Z,6.60
2019-03-08T06:05:58.048Z,6.30
2019-03-08T06:08:29.644Z,6.20
2019-03-08T06:11:01.095Z,6.20
2019-03-08T06:13:32.428Z,6.10
2019-03-08T06:16:03.694Z,6.10
2019-03-08T06:18:34.958Z,6.10
2019-03-08T06:21:06.331Z,6.10
2019-03-08T06:23:37.556Z,6.20
2019-03-08T06:26:08.803Z,6.20
2019-03-08T06:28:40.343Z,6.10
2019-03-08T06:31:11.595Z,6.20
2019-03-08T06:33:42.811Z,6.20
2019-03-08T06:36:13.966Z,6.20
2019-03-08T06:38:45.171Z,6.30
2019-03-08T06:41:16.652Z,6.50
2019-03-08T06:43:48.758Z,6.50
2019-03-08T06:46:19.991Z,6.50
2019-03-08T06:48:51.832Z,6.50
2019-03-08T06:51:23.002Z,6.70
2019-03-08T06:53:54.299Z,6.90
2019-03-08T06:56:26.110Z,7.00
2019-03-08T06:59:03.874Z,7.00
2019-03-08T07:01:37.816Z,7.10
2019-03-08T07:04:09.080Z,7.20
2019-03-08T07:06:40.445Z,7.30
2019-03-08T07:09:12.073Z,7.30
2019-03-08T07:11:43.715Z,7.20
2019-03-08T07:14:15.303Z,7.20
2019-03-08T07:16:46.504Z,7.20
2019-03-08T07:19:17.921Z,7.20
2019-03-08T07:21:54.978Z,7.30
2019-03-08T07:24:48.319Z,7.30
2019-03-08T07:27:37.808Z,7.20
2019-03-08T07:30:29.144Z,7.30
2019-03-08T07:33:18.256Z,7.40
2019-03-08T07:36:06.895Z,7.30
2019-03-08T07:39:05.991Z,7.30
2019-03-08T07:41:56.374Z,7.10
2019-03-08T07:44:45.879Z,7.00
2019-03-08T07:47:35.867Z,7.10
2019-03-08T07:50:26.621Z,7.10
2019-03-08T07:53:05.122Z,7.00
2019-03-08T07:56:07.605Z,7.00
2019-03-08T07:58:49.203Z,6.90
2019-03-08T08:01:29.006Z,7.10
2019-03-08T08:04:22.956Z,7.10
2019-03-08T08:07:12.080Z,7.30
2019-03-08T08:09:51.312Z,7.60
2019-03-08T08:12:36.095Z,7.80
2019-03-08T08:15:17.639Z,7.90
2019-03-08T08:18:06.999Z,8.00
2019-03-08T08:20:55.800Z,8.20
2019-03-08T08:23:40.741Z,8.30
2019-03-08T08:26:40.079Z,8.30
2019-03-08T08:29:35.078Z,8.20
2019-03-08T08:32:24.216Z,8.30
2019-03-08T08:35:09.084Z,8.80
2019-03-08T08:38:05.430Z,9.20
2019-03-08T08:40:57.105Z,9.90
2019-03-08T08:43:53.418Z,10.10
2019-03-08T08:46:42.817Z,9.90
2019-03-08T08:49:37.513Z,9.60
2019-03-08T08:52:25.548Z,9.60
2019-03-08T08:55:14.581Z,9.20
2019-03-08T08:58:04.677Z,9.10
2019-03-08T09:01:03.823Z,9.10
2019-03-08T09:03:50.181Z,9.50
2019-03-08T09:06:40.270Z,9.80
2019-03-08T09:09:19.499Z,10.10
2019-03-08T09:12:03.540Z,9.90
2019-03-08T09:14:40.981Z,9.70
2019-03-08T09:17:29.268Z,9.40
2019-03-08T09:20:34.734Z,9.30
2019-03-08T09:23:11.498Z,9.00
2019-03-08T09:26:16.901Z,8.60
2019-03-08T09:29:06.140Z,8.50
2019-03-08T16:24:00.635Z,10.40
2019-03-08T16:26:31.935Z,10.20
2019-03-08T16:29:03.234Z,10.00
2019-03-08T16:31:55.937Z,9.80
2019-03-08T16:34:26.661Z,9.60
2019-03-08T16:37:02.285Z,9.40
2019-03-08T16:40:04.287Z,9.30
2019-03-08T16:42:59.828Z,9.20
2019-03-08T16:45:56.208Z,9.20
2019-03-08T16:48:34.951Z,9.20
2019-03-08T16:51:30.254Z,9.20
2019-03-08T16:54:27.835Z,9.10
2019-03-08T16:57:11.017Z,9.10
2019-03-08T16:59:48.968Z,9.10
2019-03-08T17:02:37.747Z,9.10
2019-03-08T17:05:26.736Z,9.10
2019-03-08T17:08:17.712Z,9.00
2019-03-08T17:11:23.119Z,9.00
2019-03-08T17:14:10.254Z,9.00
2019-03-08T17:16:49.586Z,8.90
2019-03-08T17:19:27.647Z,8.90
2019-03-08T17:22:21.018Z,8.80
2019-03-08T17:25:13.117Z,8.80
2019-03-08T17:28:02.155Z,8.70
2019-03-08T17:31:04.622Z,8.70
2019-03-08T17:34:00.689Z,8.60
2019-03-08T17:36:53.812Z,8.60
2019-03-08T17:40:02.225Z,8.60
2019-03-08T17:42:46.658Z,8.70
2019-03-08T17:45:45.784Z,8.60
2019-03-08T17:48:39.218Z,8.70
2019-03-08T17:51:30.209Z,8.70
2019-03-08T17:54:35.634Z,8.70
2019-03-08T17:57:41.035Z,8.60
2019-03-08T18:00:32.880Z,8.60
2019-03-08T18:03:32.005Z,8.70
2019-03-08T18:06:15.766Z,8.60
2019-03-08T18:08:55.152Z,8.70
2019-03-08T18:11:43.916Z,8.70
2019-03-08T18:14:26.372Z,8.70
2019-03-08T18:17:15.523Z,8.80
2019-03-08T18:20:08.190Z,8.70
2019-03-08T18:23:01.832Z,8.70
2019-03-08T18:25:43.855Z,8.80
2019-03-08T18:28:35.086Z,8.80
2019-03-08T18:31:16.067Z,8.90
2019-03-08T18:34:18.293Z,8.80
2019-03-08T18:36:59.500Z,8.70
2019-03-08T18:39:55.659Z,8.70
2019-03-08T18:42:46.065Z,8.70
2019-03-08T18:45:43.303Z,8.70
2019-03-08T18:48:20.456Z,8.70
2019-03-08T18:51:23.086Z,8.70
2019-03-08T18:54:18.666Z,8.70
2019-03-08T18:57:11.896Z,8.70
2019-03-08T18:59:58.638Z,8.70
2019-03-08T19:02:49.017Z,8.70
2019-03-08T19:05:36.767Z,8.70
2019-03-08T19:08:26.314Z,8.70
2019-03-08T19:11:15.924Z,8.70
2019-03-08T19:14:18.293Z,8.70
2019-03-08T19:17:08.444Z,8.70
2019-03-08T19:19:48.896Z,8.70
2019-03-08T19:22:48.753Z,8.60
2019-03-08T19:25:29.025Z,8.50
2019-03-08T19:28:28.686Z,8.60
2019-03-08T19:31:21.862Z,8.70
2019-03-08T19:34:14.820Z,8.70
2019-03-08T19:36:52.760Z,8.60
2019-03-08T19:39:41.869Z,8.50
2019-03-08T19:42:18.060Z,8.60
2019-03-08T19:44:57.412Z,8.50
2019-03-08T19:47:47.585Z,8.50
2019-03-08T19:50:34.967Z,8.50
2019-03-08T19:53:43.476Z,8.40
2019-03-08T19:56:46.175Z,8.40
2019-03-08T19:59:45.168Z,8.40
2019-03-08T20:02:42.265Z,8.40
2019-03-08T20:05:30.013Z,8.50
2019-03-08T20:08:20.182Z,8.60
2019-03-08T20:11:10.094Z,8.60
2019-03-08T20:13:50.816Z,8.70
2019-03-08T20:16:35.285Z,8.80
2019-03-08T20:19:37.746Z,8.80
2019-03-08T20:22:22.534Z,8.90
2019-03-08T20:25:13.165Z,8.90
2019-03-08T20:27:50.600Z,8.80
2019-03-08T20:30:43.942Z,8.80
2019-03-08T20:33:40.843Z,8.70
2019-03-08T20:36:34.812Z,8.60
2019-03-08T20:39:30.352Z,8.50
2019-03-08T20:42:23.469Z,8.50
2019-03-08T20:45:19.861Z,8.40
2019-03-08T20:47:51.644Z,8.40
2019-03-08T20:50:23.168Z,8.30
2019-03-08T20:52:54.399Z,8.20
2019-03-08T20:55:25.647Z,8.20
2019-03-08T20:57:56.953Z,8.20
2019-03-08T21:00:28.276Z,8.30
2019-03-08T21:03:00.865Z,8.30
2019-03-08T21:05:32.731Z,8.40
2019-03-08T21:08:04.181Z,8.50
2019-03-08T21:10:35.517Z,8.40
2019-03-08T21:13:06.742Z,8.40
2019-03-08T21:15:37.974Z,8.50
2019-03-08T21:18:09.478Z,8.50
2019-03-08T21:20:40.940Z,8.50
2019-03-08T21:23:12.185Z,8.60
2019-03-08T21:25:43.406Z,8.60
2019-03-08T21:28:14.821Z,8.70
2019-03-08T21:30:46.095Z,8.70
2019-03-08T21:33:17.425Z,8.70
2019-03-08T21:35:48.680Z,8.70
2019-03-08T21:38:20.260Z,8.80
2019-03-08T21:40:51.502Z,8.80
2019-03-08T21:43:22.892Z,8.80
2019-03-08T21:45:54.095Z,8.80
2019-03-08T21:48:25.442Z,8.80
2019-03-08T21:50:56.671Z,8.80
2019-03-08T21:53:27.759Z,8.80
2019-03-08T21:55:59.187Z,8.80
2019-03-08T21:58:30.390Z,8.70
2019-03-08T22:01:02.116Z,8.70
2019-03-08T22:03:33.432Z,8.70
2019-03-08T22:06:04.650Z,8.80
2019-03-08T22:08:37.417Z,8.70
2019-03-08T22:11:16.558Z,8.80
2019-03-08T22:13:47.709Z,8.80
2019-03-08T22:16:19.157Z,8.70
2019-03-08T22:18:50.229Z,8.70
2019-03-08T22:21:21.595Z,8.70
2019-03-08T22:23:52.654Z,8.70
2019-03-08T22:26:23.902Z,8.70
2019-03-08T22:28:55.131Z,8.70
2019-03-08T22:31:26.687Z,8.70
2019-03-08T22:33:57.848Z,8.70
2019-03-08T22:36:29.185Z,8.70
2019-03-08T22:39:00.369Z,8.80
2019-03-08T22:41:31.566Z,8.80
2019-03-08T22:44:02.704Z,8.80
2019-03-08T22:46:34.375Z,8.90
2019-03-08T22:49:05.870Z,8.90
2019-03-08T22:51:37.282Z,8.80
2019-03-08T22:54:08.410Z,8.90
2019-03-08T22:56:39.729Z,8.90
2019-03-08T22:59:11.171Z,8.90
2019-03-08T23:01:53.476Z,8.90
2019-03-08T23:04:24.798Z,8.90
2019-03-08T23:06:56.099Z,8.90
2019-03-08T23:09:27.368Z,8.90
2019-03-08T23:11:58.818Z,8.90
2019-03-08T23:14:30.210Z,8.90
2019-03-08T23:17:01.567Z,8.80
2019-03-08T23:19:32.774Z,8.80
2019-03-08T23:22:04.248Z,8.90
2019-03-08T23:24:35.419Z,8.90
2019-03-08T23:27:15.975Z,8.90
2019-03-08T23:29:56.231Z,8.90
2019-03-08T23:32:30.437Z,8.90
2019-03-08T23:35:01.570Z,9.00
2019-03-08T23:37:32.842Z,9.00
2019-03-08T23:40:04.786Z,9.00
2019-03-08T23:42:35.999Z,9.10
2019-03-08T23:45:08.009Z,9.00
2019-03-08T23:47:39.248Z,9.00
2019-03-08T23:50:11.210Z,9.00
2019-03-08T23:52:42.629Z,9.10
2019-03-08T23:55:13.872Z,9.10
2019-03-08T23:57:45.125Z,9.10
